sensor_id;sensor_type;location;lat;lon;timestamp;temperature;humidity
7388;DHT22;3735;50.136;11.062;2023-02-15T00:01:58;0.40;99.90
7388;DHT22;3735;50.136;11.062;2023-02-15T00:04:25;0.40;99.90
7388;DHT22;3735;50.136;11.062;2023-02-15T00:07:12;0.40;99.90
7388;DHT22;3735;50.136;11.062;2023-02-15T00:09:41;0.40;99.90
7388;DHT22;3735;50.136;11.062;2023-02-15T00:12:08;0.30;99.90
7388;DHT22;3735;50.136;11.062;2023-02-15T00:14:35;0.30;99.90
7388;DHT22;3735;50.136;11.062;2023-02-15T00:17:00;0.40;99.90
7388;DHT22;3735;50.136;11.062;2023-02-15T00:19:26;0.30;99.90
7388;DHT22;3735;50.136;11.062;2023-02-15T00:21:52;0.30;99.90
7388;DHT22;3735;50.136;11.062;2023-02-15T00:24:19;0.30;99.90
7388;DHT22;3735;50.136;11.062;2023-02-15T00:26:46;0.30;99.90
7388;DHT22;3735;50.136;11.062;2023-02-15T00:29:15;0.30;99.90
7388;DHT22;3735;50.136;11.062;2023-02-15T00:31:42;0.30;99.90
7388;DHT22;3735;50.136;11.062;2023-02-15T00:34:13;0.30;99.90
7388;DHT22;3735;50.136;11.062;2023-02-15T00:36:45;0.30;99.90
7388;DHT22;3735;50.136;11.062;2023-02-15T00:39:12;0.30;99.90
7388;DHT22;3735;50.136;11.062;2023-02-15T00:41:39;0.30;99.90
7388;DHT22;3735;50.136;11.062;2023-02-15T00:44:05;0.30;99.90
7388;DHT22;3735;50.136;11.062;2023-02-15T00:46:32;0.20;99.90
7388;DHT22;3735;50.136;11.062;2023-02-15T00:48:58;0.30;99.90
7388;DHT22;3735;50.136;11.062;2023-02-15T00:51:25;0.30;99.90
7388;DHT22;3735;50.136;11.062;2023-02-15T00:53:51;0.20;99.90
7388;DHT22;3735;50.136;11.062;2023-02-15T00:56:17;0.20;99.90
7388;DHT22;3735;50.136;11.062;2023-02-15T00:58:44;0.20;99.90
7388;DHT22;3735;50.136;11.062;2023-02-15T01:01:16;0.30;99.90
7388;DHT22;3735;50.136;11.062;2023-02-15T01:03:43;0.20;99.90
7388;DHT22;3735;50.136;11.062;2023-02-15T01:06:11;0.20;99.90
7388;DHT22;3735;50.136;11.062;2023-02-15T01:08:37;0.20;99.90
7388;DHT22;3735;50.136;11.062;2023-02-15T01:11:08;0.20;99.90
7388;DHT22;3735;50.136;11.062;2023-02-15T01:13:38;0.20;99.90
7388;DHT22;3735;50.136;11.062;2023-02-15T01:16:04;0.10;99.90
7388;DHT22;3735;50.136;11.062;2023-02-15T01:18:30;0.10;99.90
7388;DHT22;3735;50.136;11.062;2023-02-15T01:20:56;0.10;99.90
7388;DHT22;3735;50.136;11.062;2023-02-15T01:23:23;0.10;99.90
7388;DHT22;3735;50.136;11.062;2023-02-15T01:25:48;0.10;99.90
7388;DHT22;3735;50.136;11.062;2023-02-15T01:28:14;0.20;99.90
7388;DHT22;3735;50.136;11.062;2023-02-15T01:30:40;0.20;99.90
7388;DHT22;3735;50.136;11.062;2023-02-15T01:33:06;0.10;99.90
7388;DHT22;3735;50.136;11.062;2023-02-15T01:35:33;0.10;99.90
7388;DHT22;3735;50.136;11.062;2023-02-15T01:37:58;0.10;99.90
7388;DHT22;3735;50.136;11.062;2023-02-15T01:40:25;0.10;99.90
7388;DHT22;3735;50.136;11.062;2023-02-15T01:42:54;0.10;99.90
7388;DHT22;3735;50.136;11.062;2023-02-15T01:45:32;0.20;99.90
7388;DHT22;3735;50.136;11.062;2023-02-15T01:50:52;0.10;99.90
7388;DHT22;3735;50.136;11.062;2023-02-15T01:53:38;0.10;99.90
7388;DHT22;3735;50.136;11.062;2023-02-15T01:56:20;0.10;99.90
7388;DHT22;3735;50.136;11.062;2023-02-15T01:58:51;0.20;99.90
7388;DHT22;3735;50.136;11.062;2023-02-15T02:01:19;0.10;99.90
7388;DHT22;3735;50.136;11.062;2023-02-15T02:04:17;0.10;99.90
7388;DHT22;3735;50.136;11.062;2023-02-15T02:06:49;0.10;99.90
7388;DHT22;3735;50.136;11.062;2023-02-15T02:09:16;0.10;99.90
7388;DHT22;3735;50.136;11.062;2023-02-15T02:11:44;0.20;99.90
7388;DHT22;3735;50.136;11.062;2023-02-15T02:14:13;0.10;99.90
7388;DHT22;3735;50.136;11.062;2023-02-15T02:16:48;0.10;99.90
7388;DHT22;3735;50.136;11.062;2023-02-15T02:36:55;-0.10;99.90
7388;DHT22;3735;50.136;11.062;2023-02-15T02:47:34;-0.20;99.90
7388;DHT22;3735;50.136;11.062;2023-02-15T02:50:09;-0.20;99.90
7388;DHT22;3735;50.136;11.062;2023-02-15T03:01:16;-0.20;99.90
7388;DHT22;3735;50.136;11.062;2023-02-15T03:03:51;-0.20;99.90
7388;DHT22;3735;50.136;11.062;2023-02-15T03:06:42;-0.20;99.90
7388;DHT22;3735;50.136;11.062;2023-02-15T03:11:44;-0.20;99.90
7388;DHT22;3735;50.136;11.062;2023-02-15T03:14:13;-0.20;99.90
7388;DHT22;3735;50.136;11.062;2023-02-15T03:16:43;-0.20;99.90
7388;DHT22;3735;50.136;11.062;2023-02-15T03:19:26;-0.20;99.90
7388;DHT22;3735;50.136;11.062;2023-02-15T03:22:03;-0.30;99.90
7388;DHT22;3735;50.136;11.062;2023-02-15T03:24:57;-0.30;99.90
7388;DHT22;3735;50.136;11.062;2023-02-15T03:27:37;-0.30;99.90
7388;DHT22;3735;50.136;11.062;2023-02-15T03:30:09;-0.40;99.90
7388;DHT22;3735;50.136;11.062;2023-02-15T03:32:37;-0.40;99.90
7388;DHT22;3735;50.136;11.062;2023-02-15T03:35:06;-0.40;99.90
7388;DHT22;3735;50.136;11.062;2023-02-15T03:37:40;-0.40;99.90
7388;DHT22;3735;50.136;11.062;2023-02-15T03:40:18;-0.40;99.90
7388;DHT22;3735;50.136;11.062;2023-02-15T03:43:45;-0.40;99.90
7388;DHT22;3735;50.136;11.062;2023-02-15T03:48:55;-0.40;99.90
7388;DHT22;3735;50.136;11.062;2023-02-15T03:51:29;-0.40;99.90
7388;DHT22;3735;50.136;11.062;2023-02-15T03:54:07;-0.40;99.90
7388;DHT22;3735;50.136;11.062;2023-02-15T03:56:41;-0.40;99.90
7388;DHT22;3735;50.136;11.062;2023-02-15T03:59:27;-0.40;99.90
7388;DHT22;3735;50.136;11.062;2023-02-15T04:02:23;-0.40;99.90
7388;DHT22;3735;50.136;11.062;2023-02-15T04:04:56;-0.40;99.90
7388;DHT22;3735;50.136;11.062;2023-02-15T04:07:21;-0.40;99.90
7388;DHT22;3735;50.136;11.062;2023-02-15T04:09:47;-0.40;99.90
7388;DHT22;3735;50.136;11.062;2023-02-15T04:12:31;-0.40;99.90
7388;DHT22;3735;50.136;11.062;2023-02-15T04:14:57;-0.40;99.90
7388;DHT22;3735;50.136;11.062;2023-02-15T04:17:41;-0.50;99.90
7388;DHT22;3735;50.136;11.062;2023-02-15T04:20:08;-0.50;99.90
7388;DHT22;3735;50.136;11.062;2023-02-15T04:22:53;-0.50;99.90
7388;DHT22;3735;50.136;11.062;2023-02-15T04:25:37;-0.50;99.90
7388;DHT22;3735;50.136;11.062;2023-02-15T04:28:02;-0.50;99.90
7388;DHT22;3735;50.136;11.062;2023-02-15T04:30:28;-0.50;99.90
7388;DHT22;3735;50.136;11.062;2023-02-15T04:32:54;-0.50;99.90
7388;DHT22;3735;50.136;11.062;2023-02-15T04:35:22;-0.60;99.90
7388;DHT22;3735;50.136;11.062;2023-02-15T04:37:48;-0.60;99.90
7388;DHT22;3735;50.136;11.062;2023-02-15T04:40:14;-0.50;99.90
7388;DHT22;3735;50.136;11.062;2023-02-15T04:42:41;-0.60;99.90
7388;DHT22;3735;50.136;11.062;2023-02-15T04:45:07;-0.60;99.90
7388;DHT22;3735;50.136;11.062;2023-02-15T04:47:33;-0.60;99.90
7388;DHT22;3735;50.136;11.062;2023-02-15T04:49:59;-0.60;99.90
7388;DHT22;3735;50.136;11.062;2023-02-15T04:52:25;-0.60;99.90
7388;DHT22;3735;50.136;11.062;2023-02-15T04:54:50;-0.60;99.90
7388;DHT22;3735;50.136;11.062;2023-02-15T04:57:17;-0.60;99.90
7388;DHT22;3735;50.136;11.062;2023-02-15T04:59:42;-0.60;99.90
7388;DHT22;3735;50.136;11.062;2023-02-15T05:02:08;-0.60;99.90
7388;DHT22;3735;50.136;11.062;2023-02-15T05:04:34;-0.60;99.90
7388;DHT22;3735;50.136;11.062;2023-02-15T05:07:00;-0.60;99.90
7388;DHT22;3735;50.136;11.062;2023-02-15T05:09:25;-0.60;99.90
7388;DHT22;3735;50.136;11.062;2023-02-15T05:11:51;-0.50;99.90
7388;DHT22;3735;50.136;11.062;2023-02-15T05:14:17;-0.50;99.90
7388;DHT22;3735;50.136;11.062;2023-02-15T05:16:43;-0.60;99.90
7388;DHT22;3735;50.136;11.062;2023-02-15T05:19:08;-0.60;99.90
7388;DHT22;3735;50.136;11.062;2023-02-15T05:21:34;-0.60;99.90
7388;DHT22;3735;50.136;11.062;2023-02-15T05:24:00;-0.60;99.90
7388;DHT22;3735;50.136;11.062;2023-02-15T05:26:46;-0.60;99.90
7388;DHT22;3735;50.136;11.062;2023-02-15T05:29:30;-0.70;99.90
7388;DHT22;3735;50.136;11.062;2023-02-15T05:31:56;-0.70;99.90
7388;DHT22;3735;50.136;11.062;2023-02-15T05:34:21;-0.70;99.90
7388;DHT22;3735;50.136;11.062;2023-02-15T05:36:47;-0.70;99.90
7388;DHT22;3735;50.136;11.062;2023-02-15T05:39:13;-0.70;99.90
7388;DHT22;3735;50.136;11.062;2023-02-15T05:41:38;-0.70;99.90
7388;DHT22;3735;50.136;11.062;2023-02-15T05:44:04;-0.70;99.90
7388;DHT22;3735;50.136;11.062;2023-02-15T05:46:30;-0.70;99.90
7388;DHT22;3735;50.136;11.062;2023-02-15T05:48:56;-0.70;99.90
7388;DHT22;3735;50.136;11.062;2023-02-15T05:51:21;-0.80;99.90
7388;DHT22;3735;50.136;11.062;2023-02-15T05:53:47;-0.80;99.90
7388;DHT22;3735;50.136;11.062;2023-02-15T05:56:13;-0.80;99.90
7388;DHT22;3735;50.136;11.062;2023-02-15T05:58:40;-0.80;99.90
7388;DHT22;3735;50.136;11.062;2023-02-15T06:01:17;-0.80;99.90
7388;DHT22;3735;50.136;11.062;2023-02-15T06:03:45;-0.70;99.90
7388;DHT22;3735;50.136;11.062;2023-02-15T06:06:11;-0.70;99.90
7388;DHT22;3735;50.136;11.062;2023-02-15T06:08:37;-0.70;99.90
7388;DHT22;3735;50.136;11.062;2023-02-15T06:11:04;-0.80;99.90
7388;DHT22;3735;50.136;11.062;2023-02-15T06:13:30;-0.80;99.90
7388;DHT22;3735;50.136;11.062;2023-02-15T06:15:57;-0.80;99.90
7388;DHT22;3735;50.136;11.062;2023-02-15T06:18:23;-0.80;99.90
7388;DHT22;3735;50.136;11.062;2023-02-15T06:20:49;-0.90;99.90
7388;DHT22;3735;50.136;11.062;2023-02-15T06:23:16;-0.90;99.90
7388;DHT22;3735;50.136;11.062;2023-02-15T06:25:44;-0.80;99.90
7388;DHT22;3735;50.136;11.062;2023-02-15T06:28:11;-0.80;99.90
7388;DHT22;3735;50.136;11.062;2023-02-15T06:30:37;-0.80;99.90
7388;DHT22;3735;50.136;11.062;2023-02-15T06:33:03;-0.80;99.90
7388;DHT22;3735;50.136;11.062;2023-02-15T06:35:29;-0.70;99.90
7388;DHT22;3735;50.136;11.062;2023-02-15T06:37:54;-0.70;99.90
7388;DHT22;3735;50.136;11.062;2023-02-15T06:40:20;-0.80;99.90
7388;DHT22;3735;50.136;11.062;2023-02-15T06:42:46;-0.70;99.90
7388;DHT22;3735;50.136;11.062;2023-02-15T06:45:12;-0.70;99.90
7388;DHT22;3735;50.136;11.062;2023-02-15T06:47:38;-0.70;99.90
7388;DHT22;3735;50.136;11.062;2023-02-15T06:50:05;-0.70;99.90
7388;DHT22;3735;50.136;11.062;2023-02-15T06:52:32;-0.60;99.90
7388;DHT22;3735;50.136;11.062;2023-02-15T06:54:58;-0.60;99.90
7388;DHT22;3735;50.136;11.062;2023-02-15T06:57:24;-0.60;99.90
7388;DHT22;3735;50.136;11.062;2023-02-15T06:59:50;-0.60;99.90
7388;DHT22;3735;50.136;11.062;2023-02-15T07:02:15;-0.60;99.90
7388;DHT22;3735;50.136;11.062;2023-02-15T07:04:41;-0.50;99.90
7388;DHT22;3735;50.136;11.062;2023-02-15T07:07:11;-0.40;99.90
7388;DHT22;3735;50.136;11.062;2023-02-15T07:09:38;-0.40;99.90
7388;DHT22;3735;50.136;11.062;2023-02-15T07:12:04;-0.40;99.90
7388;DHT22;3735;50.136;11.062;2023-02-15T07:14:49;-0.40;99.90
7388;DHT22;3735;50.136;11.062;2023-02-15T07:17:15;-0.40;99.90
7388;DHT22;3735;50.136;11.062;2023-02-15T07:19:41;-0.40;99.90
7388;DHT22;3735;50.136;11.062;2023-02-15T07:22:06;-0.40;99.90
7388;DHT22;3735;50.136;11.062;2023-02-15T07:24:32;-0.40;99.90
7388;DHT22;3735;50.136;11.062;2023-02-15T07:26:58;-0.40;99.90
7388;DHT22;3735;50.136;11.062;2023-02-15T07:29:24;-0.30;99.90
7388;DHT22;3735;50.136;11.062;2023-02-15T07:31:50;-0.30;99.90
7388;DHT22;3735;50.136;11.062;2023-02-15T07:34:16;-0.30;99.90
7388;DHT22;3735;50.136;11.062;2023-02-15T07:36:42;-0.30;99.90
7388;DHT22;3735;50.136;11.062;2023-02-15T07:39:10;-0.20;99.90
7388;DHT22;3735;50.136;11.062;2023-02-15T07:41:36;-0.20;99.90
7388;DHT22;3735;50.136;11.062;2023-02-15T07:44:02;-0.10;99.90
7388;DHT22;3735;50.136;11.062;2023-02-15T07:46:28;-0.10;99.90
7388;DHT22;3735;50.136;11.062;2023-02-15T07:48:53;0.00;99.90
7388;DHT22;3735;50.136;11.062;2023-02-15T07:51:19;0.00;99.90
7388;DHT22;3735;50.136;11.062;2023-02-15T07:53:45;0.10;99.90
7388;DHT22;3735;50.136;11.062;2023-02-15T07:56:13;0.10;99.90
7388;DHT22;3735;50.136;11.062;2023-02-15T07:58:39;0.10;99.90
7388;DHT22;3735;50.136;11.062;2023-02-15T08:01:23;0.10;99.90
7388;DHT22;3735;50.136;11.062;2023-02-15T08:03:52;0.10;99.90
7388;DHT22;3735;50.136;11.062;2023-02-15T08:06:20;0.10;99.90
7388;DHT22;3735;50.136;11.062;2023-02-15T08:08:47;0.10;99.90
7388;DHT22;3735;50.136;11.062;2023-02-15T08:11:21;0.10;99.90
7388;DHT22;3735;50.136;11.062;2023-02-15T08:13:52;0.20;99.90
7388;DHT22;3735;50.136;11.062;2023-02-15T08:16:40;0.20;99.90
7388;DHT22;3735;50.136;11.062;2023-02-15T08:21:43;0.30;99.90
7388;DHT22;3735;50.136;11.062;2023-02-15T08:24:17;0.40;99.90
7388;DHT22;3735;50.136;11.062;2023-02-15T08:26:44;0.40;99.90
7388;DHT22;3735;50.136;11.062;2023-02-15T08:29:12;0.40;99.90
7388;DHT22;3735;50.136;11.062;2023-02-15T08:31:40;0.50;99.90
7388;DHT22;3735;50.136;11.062;2023-02-15T08:34:07;0.50;99.90
7388;DHT22;3735;50.136;11.062;2023-02-15T08:36:34;0.50;99.90
7388;DHT22;3735;50.136;11.062;2023-02-15T08:39:02;0.40;99.90
7388;DHT22;3735;50.136;11.062;2023-02-15T08:41:35;0.40;99.90
7388;DHT22;3735;50.136;11.062;2023-02-15T08:44:04;0.40;99.90
7388;DHT22;3735;50.136;11.062;2023-02-15T08:46:37;0.30;99.90
7388;DHT22;3735;50.136;11.062;2023-02-15T08:49:05;0.40;99.90
7388;DHT22;3735;50.136;11.062;2023-02-15T08:51:34;0.40;99.90
7388;DHT22;3735;50.136;11.062;2023-02-15T08:54:04;0.50;99.90
7388;DHT22;3735;50.136;11.062;2023-02-15T08:56:35;0.40;99.90
7388;DHT22;3735;50.136;11.062;2023-02-15T08:59:03;0.40;99.90
7388;DHT22;3735;50.136;11.062;2023-02-15T09:01:31;0.30;99.90
7388;DHT22;3735;50.136;11.062;2023-02-15T09:04:04;0.30;99.90
7388;DHT22;3735;50.136;11.062;2023-02-15T09:06:33;0.40;99.90
7388;DHT22;3735;50.136;11.062;2023-02-15T09:09:00;0.50;99.90
7388;DHT22;3735;50.136;11.062;2023-02-15T09:11:28;0.60;99.90
7388;DHT22;3735;50.136;11.062;2023-02-15T09:13:58;0.70;99.90
7388;DHT22;3735;50.136;11.062;2023-02-15T09:16:28;0.80;99.90
7388;DHT22;3735;50.136;11.062;2023-02-15T09:18:56;1.00;99.90
7388;DHT22;3735;50.136;11.062;2023-02-15T09:21:24;1.20;99.90
7388;DHT22;3735;50.136;11.062;2023-02-15T09:23:55;1.30;99.90
7388;DHT22;3735;50.136;11.062;2023-02-15T09:26:23;1.40;99.90
7388;DHT22;3735;50.136;11.062;2023-02-15T09:28:54;1.60;99.90
7388;DHT22;3735;50.136;11.062;2023-02-15T09:31:24;1.60;99.90
7388;DHT22;3735;50.136;11.062;2023-02-15T09:33:52;1.60;99.90
7388;DHT22;3735;50.136;11.062;2023-02-15T09:36:31;1.50;99.90
7388;DHT22;3735;50.136;11.062;2023-02-15T09:56:03;1.70;99.90
7388;DHT22;3735;50.136;11.062;2023-02-15T10:01:39;1.80;99.90
7388;DHT22;3735;50.136;11.062;2023-02-15T10:16:54;2.50;99.90
7388;DHT22;3735;50.136;11.062;2023-02-15T10:19:41;2.60;99.90
7388;DHT22;3735;50.136;11.062;2023-02-15T10:27:50;2.60;99.90
7388;DHT22;3735;50.136;11.062;2023-02-15T10:30:36;2.60;99.90
7388;DHT22;3735;50.136;11.062;2023-02-15T10:33:40;2.80;99.90
7388;DHT22;3735;50.136;11.062;2023-02-15T10:36:38;3.00;99.90
7388;DHT22;3735;50.136;11.062;2023-02-15T10:39:34;3.20;99.90
7388;DHT22;3735;50.136;11.062;2023-02-15T10:42:30;3.50;99.90
7388;DHT22;3735;50.136;11.062;2023-02-15T10:45:20;3.80;99.90
7388;DHT22;3735;50.136;11.062;2023-02-15T10:48:16;4.00;99.90
7388;DHT22;3735;50.136;11.062;2023-02-15T10:51:00;4.00;99.90
7388;DHT22;3735;50.136;11.062;2023-02-15T10:56:42;4.00;99.90
7388;DHT22;3735;50.136;11.062;2023-02-15T11:08:52;4.20;99.90
7388;DHT22;3735;50.136;11.062;2023-02-15T11:11:33;4.40;99.90
7388;DHT22;3735;50.136;11.062;2023-02-15T11:14:13;4.50;99.90
7388;DHT22;3735;50.136;11.062;2023-02-15T11:16:49;4.60;99.90
7388;DHT22;3735;50.136;11.062;2023-02-15T11:19:45;4.70;99.90
7388;DHT22;3735;50.136;11.062;2023-02-15T11:22:33;4.80;99.90
7388;DHT22;3735;50.136;11.062;2023-02-15T11:25:01;4.90;99.90
7388;DHT22;3735;50.136;11.062;2023-02-15T11:27:40;4.90;99.90
7388;DHT22;3735;50.136;11.062;2023-02-15T11:30:13;5.00;99.90
7388;DHT22;3735;50.136;11.062;2023-02-15T11:32:43;5.00;99.90
7388;DHT22;3735;50.136;11.062;2023-02-15T11:37:53;5.20;99.90
7388;DHT22;3735;50.136;11.062;2023-02-15T11:40:48;5.10;99.90
7388;DHT22;3735;50.136;11.062;2023-02-15T11:46:03;5.00;99.90
7388;DHT22;3735;50.136;11.062;2023-02-15T11:48:31;5.10;99.90
7388;DHT22;3735;50.136;11.062;2023-02-15T11:50:58;5.10;99.90
7388;DHT22;3735;50.136;11.062;2023-02-15T11:53:28;5.30;99.90
7388;DHT22;3735;50.136;11.062;2023-02-15T11:55:59;5.30;99.90
7388;DHT22;3735;50.136;11.062;2023-02-15T12:01:30;5.40;99.90
7388;DHT22;3735;50.136;11.062;2023-02-15T12:04:32;5.30;99.90
7388;DHT22;3735;50.136;11.062;2023-02-15T12:12:45;5.20;99.90
7388;DHT22;3735;50.136;11.062;2023-02-15T12:15:12;5.20;99.90
7388;DHT22;3735;50.136;11.062;2023-02-15T12:17:52;5.30;99.90
7388;DHT22;3735;50.136;11.062;2023-02-15T12:20:24;5.40;99.90
7388;DHT22;3735;50.136;11.062;2023-02-15T12:31:03;5.70;99.90
7388;DHT22;3735;50.136;11.062;2023-02-15T12:33:39;5.70;99.90
7388;DHT22;3735;50.136;11.062;2023-02-15T12:38:37;5.60;99.90
7388;DHT22;3735;50.136;11.062;2023-02-15T12:41:22;5.40;99.90
7388;DHT22;3735;50.136;11.062;2023-02-15T12:49:42;5.60;99.90
7388;DHT22;3735;50.136;11.062;2023-02-15T12:54:46;5.60;99.90
7388;DHT22;3735;50.136;11.062;2023-02-15T12:57:31;5.80;99.90
7388;DHT22;3735;50.136;11.062;2023-02-15T13:00:05;5.90;99.90
7388;DHT22;3735;50.136;11.062;2023-02-15T13:02:56;6.00;99.90
7388;DHT22;3735;50.136;11.062;2023-02-15T13:05:35;6.20;99.90
7388;DHT22;3735;50.136;11.062;2023-02-15T13:08:09;6.30;99.90
7388;DHT22;3735;50.136;11.062;2023-02-15T13:11:03;6.40;99.90
7388;DHT22;3735;50.136;11.062;2023-02-15T13:13:34;6.40;99.90
7388;DHT22;3735;50.136;11.062;2023-02-15T13:16:11;6.40;99.90
7388;DHT22;3735;50.136;11.062;2023-02-15T13:18:44;6.30;99.90
7388;DHT22;3735;50.136;11.062;2023-02-15T13:21:36;6.00;99.90
7388;DHT22;3735;50.136;11.062;2023-02-15T13:24:15;5.70;99.90
7388;DHT22;3735;50.136;11.062;2023-02-15T13:26:47;5.30;99.90
7388;DHT22;3735;50.136;11.062;2023-02-15T13:31:50;5.00;99.90
7388;DHT22;3735;50.136;11.062;2023-02-15T13:34:34;5.00;99.90
7388;DHT22;3735;50.136;11.062;2023-02-15T13:42:35;4.90;99.90
7388;DHT22;3735;50.136;11.062;2023-02-15T13:45:27;4.80;99.90
7388;DHT22;3735;50.136;11.062;2023-02-15T13:51:18;4.30;99.90
7388;DHT22;3735;50.136;11.062;2023-02-15T13:54:19;4.30;99.90
7388;DHT22;3735;50.136;11.062;2023-02-15T14:00:01;4.40;99.90
7388;DHT22;3735;50.136;11.062;2023-02-15T14:17:00;4.50;99.90
7388;DHT22;3735;50.136;11.062;2023-02-15T14:22:26;4.70;99.90
7388;DHT22;3735;50.136;11.062;2023-02-15T14:25:34;4.70;99.90
7388;DHT22;3735;50.136;11.062;2023-02-15T14:28:14;4.60;99.90
7388;DHT22;3735;50.136;11.062;2023-02-15T14:30:49;4.50;99.90
7388;DHT22;3735;50.136;11.062;2023-02-15T14:33:43;4.40;99.90
7388;DHT22;3735;50.136;11.062;2023-02-15T14:36:22;4.50;99.90
7388;DHT22;3735;50.136;11.062;2023-02-15T14:45:36;4.40;99.90
7388;DHT22;3735;50.136;11.062;2023-02-15T14:58:11;4.60;99.90
7388;DHT22;3735;50.136;11.062;2023-02-15T15:00:40;4.60;99.90
7388;DHT22;3735;50.136;11.062;2023-02-15T15:03:21;4.60;99.90
7388;DHT22;3735;50.136;11.062;2023-02-15T15:05:54;4.50;99.90
7388;DHT22;3735;50.136;11.062;2023-02-15T15:08:38;4.50;99.90
7388;DHT22;3735;50.136;11.062;2023-02-15T15:16:31;4.30;99.90
7388;DHT22;3735;50.136;11.062;2023-02-15T15:24:48;3.90;99.90
7388;DHT22;3735;50.136;11.062;2023-02-15T15:27:41;3.70;99.90
7388;DHT22;3735;50.136;11.062;2023-02-15T15:35:34;3.50;99.90
7388;DHT22;3735;50.136;11.062;2023-02-15T15:41:18;3.30;99.90
7388;DHT22;3735;50.136;11.062;2023-02-15T15:44:31;3.30;99.90
7388;DHT22;3735;50.136;11.062;2023-02-15T15:50:19;3.10;99.90
7388;DHT22;3735;50.136;11.062;2023-02-15T15:52:55;3.10;99.90
7388;DHT22;3735;50.136;11.062;2023-02-15T15:55:25;3.10;99.90
7388;DHT22;3735;50.136;11.062;2023-02-15T15:57:58;3.10;99.90
7388;DHT22;3735;50.136;11.062;2023-02-15T16:00:44;3.00;99.90
7388;DHT22;3735;50.136;11.062;2023-02-15T16:03:22;2.90;99.90
7388;DHT22;3735;50.136;11.062;2023-02-15T16:05:50;2.80;99.90
7388;DHT22;3735;50.136;11.062;2023-02-15T16:08:35;2.80;99.90
7388;DHT22;3735;50.136;11.062;2023-02-15T16:11:19;2.80;99.90
7388;DHT22;3735;50.136;11.062;2023-02-15T16:13:55;2.70;99.90
7388;DHT22;3735;50.136;11.062;2023-02-15T16:16:24;2.60;99.90
7388;DHT22;3735;50.136;11.062;2023-02-15T16:18:54;2.50;99.90
7388;DHT22;3735;50.136;11.062;2023-02-15T16:21:29;2.50;99.90
7388;DHT22;3735;50.136;11.062;2023-02-15T16:30:25;2.30;99.90
7388;DHT22;3735;50.136;11.062;2023-02-15T16:35:39;2.20;99.90
7388;DHT22;3735;50.136;11.062;2023-02-15T16:38:10;2.20;99.90
7388;DHT22;3735;50.136;11.062;2023-02-15T16:40:41;2.10;99.90
7388;DHT22;3735;50.136;11.062;2023-02-15T16:43:18;2.20;99.90
7388;DHT22;3735;50.136;11.062;2023-02-15T16:46:03;2.10;99.90
7388;DHT22;3735;50.136;11.062;2023-02-15T16:48:32;2.10;99.90
7388;DHT22;3735;50.136;11.062;2023-02-15T16:51:01;2.00;99.90
7388;DHT22;3735;50.136;11.062;2023-02-15T16:53:27;2.00;99.90
7388;DHT22;3735;50.136;11.062;2023-02-15T16:55:57;2.00;99.90
7388;DHT22;3735;50.136;11.062;2023-02-15T16:58:29;2.00;99.90
7388;DHT22;3735;50.136;11.062;2023-02-15T17:00:58;2.00;99.90
7388;DHT22;3735;50.136;11.062;2023-02-15T17:03:26;1.90;99.90
7388;DHT22;3735;50.136;11.062;2023-02-15T17:05:56;1.90;99.90
7388;DHT22;3735;50.136;11.062;2023-02-15T17:08:44;1.90;99.90
7388;DHT22;3735;50.136;11.062;2023-02-15T17:11:18;2.00;99.90
7388;DHT22;3735;50.136;11.062;2023-02-15T17:16:33;1.90;99.90
7388;DHT22;3735;50.136;11.062;2023-02-15T17:19:26;1.90;99.90
7388;DHT22;3735;50.136;11.062;2023-02-15T17:22:02;1.90;99.90
7388;DHT22;3735;50.136;11.062;2023-02-15T17:27:22;1.90;99.90
7388;DHT22;3735;50.136;11.062;2023-02-15T17:29:55;1.90;99.90
7388;DHT22;3735;50.136;11.062;2023-02-15T17:32:29;1.90;99.90
7388;DHT22;3735;50.136;11.062;2023-02-15T17:37:29;1.90;99.90
7388;DHT22;3735;50.136;11.062;2023-02-15T17:39:58;1.90;99.90
7388;DHT22;3735;50.136;11.062;2023-02-15T17:42:26;1.90;99.90
7388;DHT22;3735;50.136;11.062;2023-02-15T17:44:52;1.80;99.90
7388;DHT22;3735;50.136;11.062;2023-02-15T17:47:20;1.80;99.90
7388;DHT22;3735;50.136;11.062;2023-02-15T17:49:48;1.80;99.90
7388;DHT22;3735;50.136;11.062;2023-02-15T17:52:17;1.80;99.90
7388;DHT22;3735;50.136;11.062;2023-02-15T17:54:43;1.80;99.90
7388;DHT22;3735;50.136;11.062;2023-02-15T17:57:29;1.80;99.90
7388;DHT22;3735;50.136;11.062;2023-02-15T17:59:56;1.80;99.90
7388;DHT22;3735;50.136;11.062;2023-02-15T18:02:41;1.90;99.90
7388;DHT22;3735;50.136;11.062;2023-02-15T18:05:25;1.90;99.90
7388;DHT22;3735;50.136;11.062;2023-02-15T18:08:15;1.80;99.90
7388;DHT22;3735;50.136;11.062;2023-02-15T18:11:02;1.80;99.90
7388;DHT22;3735;50.136;11.062;2023-02-15T18:13:46;1.80;99.90
7388;DHT22;3735;50.136;11.062;2023-02-15T18:16:24;1.70;99.90
7388;DHT22;3735;50.136;11.062;2023-02-15T18:18:54;1.70;99.90
7388;DHT22;3735;50.136;11.062;2023-02-15T18:21:22;1.70;99.90
7388;DHT22;3735;50.136;11.062;2023-02-15T18:23:48;1.80;99.90
7388;DHT22;3735;50.136;11.062;2023-02-15T18:26:24;1.80;99.90
7388;DHT22;3735;50.136;11.062;2023-02-15T18:28:51;1.70;99.90
7388;DHT22;3735;50.136;11.062;2023-02-15T18:31:18;1.70;99.90
7388;DHT22;3735;50.136;11.062;2023-02-15T18:33:47;1.70;99.90
7388;DHT22;3735;50.136;11.062;2023-02-15T18:36:36;1.70;99.90
7388;DHT22;3735;50.136;11.062;2023-02-15T18:39:23;1.70;99.90
7388;DHT22;3735;50.136;11.062;2023-02-15T18:41:52;1.70;99.90
7388;DHT22;3735;50.136;11.062;2023-02-15T18:44:18;1.70;99.90
7388;DHT22;3735;50.136;11.062;2023-02-15T18:46:44;1.70;99.90
7388;DHT22;3735;50.136;11.062;2023-02-15T18:49:10;1.70;99.90
7388;DHT22;3735;50.136;11.062;2023-02-15T18:51:35;1.70;99.90
7388;DHT22;3735;50.136;11.062;2023-02-15T18:54:07;1.70;99.90
7388;DHT22;3735;50.136;11.062;2023-02-15T18:56:44;1.70;99.90
7388;DHT22;3735;50.136;11.062;2023-02-15T18:59:16;1.70;99.90
7388;DHT22;3735;50.136;11.062;2023-02-15T19:01:42;1.70;99.90
7388;DHT22;3735;50.136;11.062;2023-02-15T19:04:08;1.70;99.90
7388;DHT22;3735;50.136;11.062;2023-02-15T19:06:34;1.70;99.90
7388;DHT22;3735;50.136;11.062;2023-02-15T19:09:03;1.70;99.90
7388;DHT22;3735;50.136;11.062;2023-02-15T19:11:29;1.70;99.90
7388;DHT22;3735;50.136;11.062;2023-02-15T19:13:54;1.70;99.90
7388;DHT22;3735;50.136;11.062;2023-02-15T19:18:54;1.70;99.90
7388;DHT22;3735;50.136;11.062;2023-02-15T19:21:20;1.70;99.90
7388;DHT22;3735;50.136;11.062;2023-02-15T19:23:55;1.70;99.90
7388;DHT22;3735;50.136;11.062;2023-02-15T19:26:24;1.70;99.90
7388;DHT22;3735;50.136;11.062;2023-02-15T19:28:51;1.70;99.90
7388;DHT22;3735;50.136;11.062;2023-02-15T19:31:18;1.70;99.90
7388;DHT22;3735;50.136;11.062;2023-02-15T19:33:44;1.70;99.90
7388;DHT22;3735;50.136;11.062;2023-02-15T19:36:15;1.70;99.90
7388;DHT22;3735;50.136;11.062;2023-02-15T19:38:44;1.80;99.90
7388;DHT22;3735;50.136;11.062;2023-02-15T19:41:23;1.80;99.90
7388;DHT22;3735;50.136;11.062;2023-02-15T19:43:54;1.80;99.90
7388;DHT22;3735;50.136;11.062;2023-02-15T19:46:22;1.80;99.90
7388;DHT22;3735;50.136;11.062;2023-02-15T19:48:52;1.80;99.90
7388;DHT22;3735;50.136;11.062;2023-02-15T19:51:20;1.70;99.90
7388;DHT22;3735;50.136;11.062;2023-02-15T19:53:48;1.70;99.90
7388;DHT22;3735;50.136;11.062;2023-02-15T19:56:19;1.70;99.90
7388;DHT22;3735;50.136;11.062;2023-02-15T19:58:48;1.70;99.90
7388;DHT22;3735;50.136;11.062;2023-02-15T20:01:17;1.80;99.90
7388;DHT22;3735;50.136;11.062;2023-02-15T20:03:43;1.80;99.90
7388;DHT22;3735;50.136;11.062;2023-02-15T20:06:13;1.80;99.90
7388;DHT22;3735;50.136;11.062;2023-02-15T20:08:40;1.80;99.90
7388;DHT22;3735;50.136;11.062;2023-02-15T20:11:11;1.70;99.90